Time;durP1;ratioP1;P1;durP2;ratioP2;P2;SDS_P1;SDS_P2;PMS_P1;PMS_P2;Temp;Humidity;BMP_temperature;BMP_pressure;BME280_temperature;BME280_humidity;BME280_pressure;Samples;Min_cycle;Max_cycle;Signal;HPM_P1;HPM_P2
2024/01/09 00:01:44;;;;;;;9.13;4.90;;;-4.30;15.70;;;;;;5135411;27;20910;-43
2024/01/09 00:04:13;;;;;;;10.23;6.07;;;-4.30;14.70;;;;;;5135358;27;20458;-43
2024/01/09 00:06:38;;;;;;;11.27;6.10;;;-4.30;17.10;;;;;;5135400;27;20418;-44
2024/01/09 00:09:04;;;;;;;9.83;5.07;;;-4.30;18.50;;;;;;5135289;27;20405;-46
2024/01/09 00:11:34;;;;;;;10.10;5.00;;;-4.30;22.50;;;;;;5116693;27;20200;-45
2024/01/09 00:14:00;;;;;;;10.33;5.10;;;-4.40;20.30;;;;;;5116747;27;20165;-46
2024/01/09 00:16:30;;;;;;;13.00;5.83;;;-4.30;22.50;;;;;;5134236;27;20438;-45
2024/01/09 00:18:56;;;;;;;10.53;5.53;;;-4.40;25.80;;;;;;5134753;27;20446;-45
2024/01/09 00:21:28;;;;;;;10.17;5.70;;;-4.40;26.30;;;;;;5116523;27;20442;-43
2024/01/09 00:24:00;;;;;;;12.97;6.00;;;-4.40;30.30;;;;;;5099560;27;20180;-45
2024/01/09 00:26:27;;;;;;;9.73;5.33;;;-4.40;34.60;;;;;;5134777;27;20410;-46
2024/01/09 00:28:59;;;;;;;10.23;6.03;;;-4.50;38.80;;;;;;5116360;27;20460;-44
2024/01/09 00:31:26;;;;;;;11.63;5.57;;;-4.50;43.10;;;;;;5134688;27;20427;-43
2024/01/09 00:33:53;;;;;;;6.93;4.23;;;-4.50;46.20;;;;;;5135330;27;20433;-45
2024/01/09 00:36:23;;;;;;;7.77;5.07;;;-4.50;44.50;;;;;;5134665;27;20410;-46
2024/01/09 00:38:51;;;;;;;10.37;5.47;;;-4.50;45.70;;;;;;5115897;27;20845;-44
2024/01/09 00:41:29;;;;;;;11.87;5.97;;;-4.50;44.90;;;;;;5116025;28;20543;-46
2024/01/09 00:44:01;;;;;;;11.00;6.27;;;-4.50;45.80;;;;;;5134724;27;20548;-45
2024/01/09 00:46:35;;;;;;;8.90;5.40;;;-4.50;45.80;;;;;;5134522;27;20414;-45
2024/01/09 00:49:02;;;;;;;8.80;5.67;;;-4.50;48.30;;;;;;5134735;27;20472;-46
2024/01/09 00:51:31;;;;;;;10.70;5.63;;;-4.60;47.10;;;;;;5116164;27;20502;-45
2024/01/09 00:53:58;;;;;;;9.70;6.23;;;-4.50;50.30;;;;;;5134396;27;20409;-46
2024/01/09 00:56:25;;;;;;;8.27;4.83;;;-4.60;51.30;;;;;;5116116;28;20834;-46
2024/01/09 00:58:57;;;;;;;10.00;6.20;;;-4.60;53.70;;;;;;5134415;28;20984;-44
2024/01/09 01:01:23;;;;;;;9.87;5.40;;;-4.60;53.50;;;;;;5134429;28;20444;-44
2024/01/09 01:03:52;;;;;;;10.07;5.80;;;-4.60;55.50;;;;;;5134524;28;20509;-45
2024/01/09 01:06:39;;;;;;;10.37;5.50;;;-4.60;55.90;;;;;;5134531;28;20539;-45
2024/01/09 01:09:14;;;;;;;12.67;5.93;;;-4.60;57.90;;;;;;5117911;28;20410;-46
2024/01/09 01:11:41;;;;;;;9.50;5.53;;;-4.70;60.40;;;;;;5115546;28;20440;-45
2024/01/09 01:14:09;;;;;;;10.33;6.03;;;-4.70;62.40;;;;;;5115772;28;20501;-45
2024/01/09 01:16:34;;;;;;;8.30;5.23;;;-4.70;59.90;;;;;;5116196;28;20442;-45
2024/01/09 01:19:00;;;;;;;9.40;5.93;;;-4.70;58.80;;;;;;5098702;28;20505;-45
2024/01/09 01:21:26;;;;;;;11.63;5.93;;;-4.70;59.70;;;;;;5116052;28;20273;-44
2024/01/09 01:23:53;;;;;;;9.83;5.40;;;-4.70;59.80;;;;;;5115904;28;20596;-44
2024/01/09 01:26:22;;;;;;;9.17;5.53;;;-4.70;62.80;;;;;;5133986;27;20415;-44
2024/01/09 01:28:50;;;;;;;9.07;5.50;;;-4.80;63.00;;;;;;5138465;27;20424;-44
2024/01/09 01:31:25;;;;;;;11.53;6.83;;;-4.70;64.10;;;;;;5138159;27;20628;-44
2024/01/09 01:33:53;;;;;;;12.47;5.47;;;-4.70;61.80;;;;;;5138310;27;20413;-45
2024/01/09 01:36:20;;;;;;;10.73;5.63;;;-4.80;60.20;;;;;;5138054;27;20413;-45
2024/01/09 01:38:47;;;;;;;7.37;4.57;;;-4.70;60.80;;;;;;5137892;27;21003;-46
2024/01/09 01:41:13;;;;;;;11.77;5.90;;;-4.70;59.80;;;;;;5138170;27;20439;-45
2024/01/09 01:43:42;;;;;;;8.53;4.87;;;-4.70;62.00;;;;;;5119684;27;20489;-45
2024/01/09 01:46:13;;;;;;;11.20;5.77;;;-4.80;60.30;;;;;;5138088;27;20701;-45
2024/01/09 01:48:41;;;;;;;10.47;5.67;;;-4.80;58.00;;;;;;5137817;27;20413;-46
2024/01/09 01:51:07;;;;;;;12.57;5.97;;;-4.80;58.10;;;;;;5137747;27;20449;-45
2024/01/09 01:53:34;;;;;;;6.93;4.77;;;-4.80;59.30;;;;;;5138035;27;20444;-44
2024/01/09 01:56:01;;;;;;;10.47;5.33;;;-4.80;58.60;;;;;;5102135;27;20488;-45
2024/01/09 01:58:39;;;;;;;9.23;5.40;;;-4.80;58.80;;;;;;5119286;27;20468;-45
2024/01/09 02:01:09;;;;;;;10.43;6.00;;;-4.80;59.10;;;;;;5120004;27;20448;-45
2024/01/09 02:03:39;;;;;;;8.80;5.80;;;-4.70;58.60;;;;;;5137712;27;20493;-44
2024/01/09 02:06:09;;;;;;;12.40;5.93;;;-4.80;60.40;;;;;;5119886;27;20929;-45
2024/01/09 02:08:39;;;;;;;12.50;4.67;;;-4.80;61.80;;;;;;5101396;27;20421;-44
2024/01/09 02:11:06;;;;;;;10.57;6.37;;;-4.80;64.90;;;;;;5118968;27;20434;-44
2024/01/09 02:13:32;;;;;;;10.10;6.00;;;-4.80;63.70;;;;;;5119264;27;20897;-44
2024/01/09 02:15:58;;;;;;;8.70;5.47;;;-4.80;64.60;;;;;;5137320;27;20511;-45
2024/01/09 02:18:24;;;;;;;9.50;5.43;;;-4.90;66.20;;;;;;5137253;27;20197;-45
2024/01/09 02:20:54;;;;;;;6.80;3.73;;;-4.80;68.00;;;;;;5137288;27;20196;-44
2024/01/09 02:23:19;;;;;;;9.87;5.40;;;-4.80;72.10;;;;;;5137594;27;20520;-44
2024/01/09 02:25:46;;;;;;;9.50;6.13;;;-4.90;75.70;;;;;;5137088;27;20488;-45
2024/01/09 02:28:25;;;;;;;10.13;5.37;;;-4.90;79.60;;;;;;5118993;27;20655;-44
2024/01/09 02:30:58;;;;;;;10.63;5.87;;;-4.90;79.80;;;;;;5136979;27;20929;-44
2024/01/09 02:33:25;;;;;;;10.90;6.47;;;-4.90;85.00;;;;;;5137295;27;20451;-45
2024/01/09 02:35:52;;;;;;;10.50;5.73;;;-5.00;88.00;;;;;;5118656;27;20424;-44
2024/01/09 02:38:24;;;;;;;13.53;6.50;;;-5.00;88.40;;;;;;5117619;28;20504;-45
2024/01/09 02:40:50;;;;;;;11.10;6.37;;;-5.00;90.20;;;;;;5136908;27;20428;-46
2024/01/09 02:46:37;;;;;;;9.30;5.47;;;-5.00;90.10;;;;;;5136902;27;20182;-45
2024/01/09 02:49:03;;;;;;;10.43;5.40;;;-5.00;90.10;;;;;;5120449;27;20920;-44
2024/01/09 02:51:29;;;;;;;11.57;5.43;;;-5.00;90.40;;;;;;5136780;27;20198;-44
2024/01/09 02:53:57;;;;;;;10.43;5.97;;;-5.00;92.60;;;;;;5136519;27;20180;-45
2024/01/09 02:56:23;;;;;;;9.50;5.13;;;-5.00;93.40;;;;;;5136871;27;20224;-45
2024/01/09 02:58:51;;;;;;;11.30;5.17;;;-5.10;93.10;;;;;;5118203;27;20837;-44
2024/01/09 03:01:23;;;;;;;10.33;5.73;;;-5.10;92.90;;;;;;5118188;27;20216;-46
2024/01/09 03:03:48;;;;;;;10.17;5.63;;;-5.10;93.40;;;;;;5136999;27;20774;-45
2024/01/09 03:06:14;;;;;;;10.77;5.77;;;-5.10;93.70;;;;;;5136331;27;20496;-45
2024/01/09 03:08:40;;;;;;;13.40;5.90;;;-5.10;93.80;;;;;;5136539;27;20631;-45
2024/01/09 03:11:08;;;;;;;10.70;5.57;;;-5.10;92.70;;;;;;5118205;27;20227;-46
2024/01/09 03:13:34;;;;;;;11.67;5.20;;;-5.10;91.90;;;;;;5136198;27;20662;-45
2024/01/09 03:16:13;;;;;;;9.60;6.10;;;-5.10;92.10;;;;;;5117867;27;20443;-45
2024/01/09 03:18:42;;;;;;;6.60;4.73;;;-5.20;92.10;;;;;;5135606;27;20210;-45
2024/01/09 03:21:10;;;;;;;12.23;5.77;;;-5.20;92.30;;;;;;5101030;27;20437;-44
2024/01/09 03:26:57;;;;;;;9.47;5.77;;;-5.20;87.50;;;;;;5135986;27;20391;-45
2024/01/09 03:29:23;;;;;;;10.93;6.10;;;-5.20;81.50;;;;;;5117545;27;20988;-46
2024/01/09 03:31:49;;;;;;;10.00;5.80;;;-5.20;76.10;;;;;;5135742;27;20274;-45
2024/01/09 03:34:15;;;;;;;8.27;4.47;;;-5.20;75.40;;;;;;5100535;27;20183;-45
2024/01/09 03:36:43;;;;;;;10.10;5.47;;;-5.20;73.30;;;;;;5135645;27;20416;-45
2024/01/09 03:39:34;;;;;;;9.83;5.33;;;-5.20;70.50;;;;;;5135430;27;20219;-45
2024/01/09 03:42:05;;;;;;;10.00;5.70;;;-5.20;65.90;;;;;;5135748;27;20416;-45
2024/01/09 03:44:31;;;;;;;9.27;5.00;;;-5.20;66.30;;;;;;5135665;27;20828;-45
2024/01/09 03:46:57;;;;;;;8.67;5.37;;;-5.20;61.00;;;;;;5135753;27;20416;-43
2024/01/09 03:49:24;;;;;;;9.27;5.60;;;-5.20;58.40;;;;;;5135631;27;20492;-44
2024/01/09 03:51:50;;;;;;;9.03;5.13;;;-5.20;58.50;;;;;;5099930;27;20213;-45
2024/01/09 03:54:24;;;;;;;11.87;5.40;;;-5.20;59.10;;;;;;5135677;27;20419;-45
2024/01/09 03:56:51;;;;;;;9.40;4.97;;;-5.20;57.90;;;;;;5135612;27;20163;-44
2024/01/09 03:59:18;;;;;;;7.30;4.60;;;-5.20;56.70;;;;;;5099835;27;20870;-45
2024/01/09 04:01:44;;;;;;;8.27;4.90;;;-5.20;53.30;;;;;;5116791;27;20525;-45
2024/01/09 04:04:11;;;;;;;11.50;5.67;;;-5.20;53.70;;;;;;5135261;27;20882;-45
2024/01/09 04:06:43;;;;;;;11.03;4.40;;;-5.20;52.80;;;;;;5133835;27;20190;-46
2024/01/09 04:09:12;;;;;;;9.33;5.60;;;-5.30;53.00;;;;;;5135333;27;20423;-45
2024/01/09 04:11:50;;;;;;;16.57;5.80;;;-5.30;50.90;;;;;;5100124;27;20959;-46
2024/01/09 04:14:19;;;;;;;13.77;5.87;;;-5.30;53.50;;;;;;5136033;27;20413;-47
2024/01/09 04:16:48;;;;;;;9.80;4.87;;;-5.30;53.70;;;;;;5134869;27;20991;-45
2024/01/09 04:19:14;;;;;;;7.23;4.67;;;-5.30;50.70;;;;;;5134792;27;20456;-45
2024/01/09 04:21:40;;;;;;;9.20;5.50;;;-5.30;52.10;;;;;;5134838;27;20440;-46
2024/01/09 04:24:05;;;;;;;9.63;5.67;;;-5.30;52.10;;;;;;5116395;27;20233;-45
2024/01/09 04:26:31;;;;;;;15.43;4.67;;;-5.30;51.50;;;;;;5135031;27;20488;-46
2024/01/09 04:28:57;;;;;;;7.53;4.80;;;-5.30;50.50;;;;;;5137087;27;20188;-46
2024/01/09 04:31:27;;;;;;;11.07;7.10;;;-5.30;52.10;;;;;;5134741;27;20206;-45
2024/01/09 04:33:52;;;;;;;12.07;5.73;;;-5.30;51.90;;;;;;5134841;27;20592;-45
2024/01/09 04:36:19;;;;;;;17.63;7.50;;;-5.40;47.30;;;;;;5134849;27;20414;-45
2024/01/09 04:39:01;;;;;;;19.30;7.53;;;-5.30;44.10;;;;;;5134613;27;20211;-45
2024/01/09 04:41:26;;;;;;;10.20;5.20;;;-5.30;42.70;;;;;;5116457;27;20484;-45
2024/01/09 04:43:52;;;;;;;11.73;5.40;;;-5.30;39.00;;;;;;5134378;27;20434;-46
2024/01/09 04:46:42;;;;;;;11.80;6.03;;;-5.30;39.30;;;;;;5099249;27;20294;-45
2024/01/09 04:49:10;;;;;;;11.13;5.37;;;-5.40;37.20;;;;;;5134277;27;20676;-46
2024/01/09 04:51:36;;;;;;;9.43;5.03;;;-5.30;36.90;;;;;;5134337;27;20439;-46
2024/01/09 04:54:03;;;;;;;9.23;4.73;;;-5.40;37.20;;;;;;5134900;27;20768;-45
2024/01/09 04:56:30;;;;;;;9.00;5.37;;;-5.30;34.00;;;;;;5115922;28;20192;-45
2024/01/09 04:59:00;;;;;;;11.67;6.10;;;-5.30;37.00;;;;;;5134430;27;20456;-46
2024/01/09 05:01:31;;;;;;;10.13;6.20;;;-5.30;34.30;;;;;;5115127;28;20447;-46
2024/01/09 05:03:57;;;;;;;8.77;4.83;;;-5.40;35.00;;;;;;5115826;28;20443;-45
2024/01/09 05:06:22;;;;;;;9.20;5.13;;;-5.40;34.30;;;;;;5134226;28;20931;-45
2024/01/09 05:08:50;;;;;;;9.27;5.23;;;-5.40;40.20;;;;;;5134987;28;20188;-45
2024/01/09 05:11:17;;;;;;;7.97;4.50;;;-5.40;43.20;;;;;;5116122;28;20297;-43
2024/01/09 05:13:46;;;;;;;10.17;5.23;;;-5.40;48.70;;;;;;5134399;28;20431;-46
2024/01/09 05:16:15;;;;;;;9.73;4.83;;;-5.40;51.70;;;;;;5134186;28;20408;-45
2024/01/09 05:18:44;;;;;;;8.37;4.93;;;-5.40;54.70;;;;;;5134225;28;20468;-44
2024/01/09 05:21:12;;;;;;;8.63;5.50;;;-5.50;59.70;;;;;;5116032;28;20438;-45
2024/01/09 05:23:38;;;;;;;9.87;5.37;;;-5.50;65.70;;;;;;5134604;28;20418;-45
2024/01/09 05:26:04;;;;;;;11.20;5.00;;;-5.50;70.50;;;;;;5135099;28;20498;-45
2024/01/09 05:28:31;;;;;;;9.80;5.10;;;-5.50;72.60;;;;;;5115819;28;20191;-46
2024/01/09 05:30:56;;;;;;;7.87;4.63;;;-5.50;73.80;;;;;;5115885;28;20266;-45
2024/01/09 05:33:25;;;;;;;6.13;4.20;;;-5.50;76.10;;;;;;5134007;28;20505;-44
2024/01/09 05:36:06;;;;;;;10.17;4.70;;;-5.50;81.10;;;;;;5134058;28;20176;-45
2024/01/09 05:38:33;;;;;;;8.40;4.80;;;-5.60;83.50;;;;;;5134488;28;20457;-45
2024/01/09 05:40:59;;;;;;;10.37;5.17;;;-5.60;86.70;;;;;;5133895;28;20435;-44
2024/01/09 05:43:25;;;;;;;8.87;4.87;;;-5.60;90.00;;;;;;5115514;28;20432;-45
2024/01/09 05:45:50;;;;;;;7.57;4.43;;;-5.60;90.40;;;;;;5134658;28;20193;-46
2024/01/09 05:48:16;;;;;;;8.83;4.80;;;-5.70;90.00;;;;;;5133890;28;20666;-46
2024/01/09 05:50:45;;;;;;;9.10;5.13;;;-5.70;89.20;;;;;;5115375;28;20207;-46
2024/01/09 05:53:12;;;;;;;9.57;5.50;;;-5.70;90.30;;;;;;5134141;28;20657;-46
2024/01/09 05:55:39;;;;;;;10.90;5.77;;;-5.70;90.70;;;;;;5134067;28;20421;-46
2024/01/09 05:58:06;;;;;;;8.70;4.83;;;-5.70;91.80;;;;;;5133701;28;20409;-46
2024/01/09 06:00:33;;;;;;;7.20;4.70;;;-5.70;90.60;;;;;;5115591;28;20452;-46
2024/01/09 06:02:59;;;;;;;8.07;4.80;;;-5.80;90.60;;;;;;5134237;28;20410;-46
2024/01/09 06:05:24;;;;;;;12.60;5.30;;;-5.80;90.30;;;;;;5133777;28;20768;-46
2024/01/09 06:07:53;;;;;;;9.37;5.60;;;-5.70;90.30;;;;;;5134532;28;20482;-51
2024/01/09 06:10:19;;;;;;;8.97;4.83;;;-5.70;89.50;;;;;;5134463;28;20193;-47
2024/01/09 06:12:44;;;;;;;8.17;5.00;;;-5.70;89.50;;;;;;5115568;27;20410;-46
2024/01/09 06:15:10;;;;;;;12.07;5.10;;;-5.80;89.00;;;;;;5136780;27;20231;-47
2024/01/09 06:17:38;;;;;;;10.87;5.93;;;-5.80;88.00;;;;;;5137909;27;20177;-47
2024/01/09 06:20:04;;;;;;;5.73;3.73;;;-5.80;87.30;;;;;;5137456;27;20285;-46
2024/01/09 06:22:30;;;;;;;9.00;4.37;;;-5.80;84.80;;;;;;5138149;27;20434;-46
2024/01/09 06:24:56;;;;;;;9.20;4.90;;;-5.80;87.70;;;;;;5138133;27;20412;-46
2024/01/09 06:27:22;;;;;;;9.07;4.90;;;-5.80;89.40;;;;;;5119120;27;20646;-46
2024/01/09 06:29:48;;;;;;;10.13;4.87;;;-5.80;90.20;;;;;;5137815;27;20411;-46
2024/01/09 06:32:13;;;;;;;7.60;4.63;;;-5.90;91.00;;;;;;5118740;27;20202;-47
2024/01/09 06:34:39;;;;;;;7.37;4.37;;;-5.80;89.20;;;;;;5137295;27;20171;-46
2024/01/09 06:37:04;;;;;;;9.83;5.13;;;-5.80;90.40;;;;;;5136988;27;20224;-46
2024/01/09 06:39:30;;;;;;;8.83;4.70;;;-5.80;91.70;;;;;;5137167;27;20199;-46
2024/01/09 06:42:05;;;;;;;9.13;4.70;;;-5.80;94.00;;;;;;5136798;27;20609;-46
2024/01/09 06:44:30;;;;;;;7.73;4.97;;;-5.90;95.40;;;;;;5136780;27;20562;-46
2024/01/09 06:46:56;;;;;;;12.30;5.47;;;-5.90;96.80;;;;;;5136779;27;20410;-46
2024/01/09 06:49:21;;;;;;;8.87;5.43;;;-5.90;96.50;;;;;;5136847;27;20202;-45
2024/01/09 06:51:47;;;;;;;13.17;4.70;;;-5.90;95.80;;;;;;5137045;27;20195;-47
2024/01/09 06:54:12;;;;;;;11.17;4.93;;;-5.90;96.40;;;;;;5136805;27;20174;-45
2024/01/09 06:56:45;;;;;;;10.47;5.17;;;-5.90;96.20;;;;;;5136896;27;20227;-46
2024/01/09 06:59:23;;;;;;;8.23;4.67;;;-5.90;95.30;;;;;;5137008;27;20187;-46
2024/01/09 07:05:13;;;;;;;10.63;5.00;;;-5.90;95.10;;;;;;5136370;27;20426;-47
2024/01/09 07:07:39;;;;;;;9.23;5.63;;;-6.00;93.30;;;;;;5136863;27;20409;-45
2024/01/09 07:10:06;;;;;;;14.37;5.93;;;-6.00;93.70;;;;;;5118313;27;20463;-45
2024/01/09 07:15:54;;;;;;;11.70;5.87;;;-5.90;93.30;;;;;;5136312;27;20372;-46
2024/01/09 07:18:20;;;;;;;10.97;6.20;;;-5.90;92.90;;;;;;5118245;27;20467;-46
2024/01/09 07:20:46;;;;;;;10.20;5.67;;;-5.90;93.20;;;;;;5135721;27;20440;-44
2024/01/09 07:23:12;;;;;;;12.73;6.40;;;-6.00;91.50;;;;;;5139259;27;20420;-46
2024/01/09 07:25:37;;;;;;;10.43;6.60;;;-6.00;91.10;;;;;;5139178;27;20182;-46
2024/01/09 07:28:03;;;;;;;15.87;6.43;;;-6.00;91.10;;;;;;5118746;27;20159;-47
2024/01/09 07:30:32;;;;;;;9.80;5.60;;;-6.00;91.70;;;;;;5136125;27;20196;-47
2024/01/09 07:33:01;;;;;;;11.13;5.00;;;-6.00;91.70;;;;;;5135855;27;20444;-47
2024/01/09 07:35:34;;;;;;;12.67;5.73;;;-6.00;92.50;;;;;;5135800;27;20409;-47
2024/01/09 07:38:09;;;;;;;12.03;6.23;;;-6.00;91.70;;;;;;5136285;27;20449;-46
2024/01/09 07:43:57;;;;;;;8.53;5.17;;;-6.00;92.30;;;;;;5135603;27;20459;-47
2024/01/09 07:46:30;;;;;;;11.23;5.90;;;-6.00;92.70;;;;;;5135592;27;20428;-47
2024/01/09 07:48:59;;;;;;;10.60;5.30;;;-6.00;92.50;;;;;;5135870;27;20546;-47
2024/01/09 07:51:26;;;;;;;16.73;6.73;;;-5.90;92.50;;;;;;5135430;27;20427;-46
2024/01/09 08:00:49;;;;;;;11.27;6.70;;;-5.90;90.60;;;;;;5134404;27;20940;-42
2024/01/09 08:03:21;;;;;;;10.00;5.97;;;-5.90;90.40;;;;;;5135423;27;20484;-41
2024/01/09 08:05:47;;;;;;;11.03;5.30;;;-5.80;87.90;;;;;;5116946;27;20743;-44
2024/01/09 08:11:36;;;;;;;9.10;5.87;;;-5.90;86.50;;;;;;5135068;27;20287;-44
2024/01/09 08:14:06;;;;;;;9.67;5.40;;;-5.90;84.90;;;;;;5134954;27;20408;-44
2024/01/09 08:16:35;;;;;;;10.33;6.00;;;-5.90;78.20;;;;;;5134828;27;20968;-43
2024/01/09 08:19:00;;;;;;;11.37;5.83;;;-5.90;78.60;;;;;;5135092;27;20884;-42
2024/01/09 08:24:50;;;;;;;10.93;4.80;;;-5.80;74.10;;;;;;5134897;27;20216;-42
2024/01/09 08:27:22;;;;;;;12.00;6.80;;;-5.80;73.80;;;;;;5134770;27;20887;-42
2024/01/09 08:29:48;;;;;;;15.73;6.13;;;-5.80;72.60;;;;;;5116273;27;20433;-42
2024/01/09 08:32:26;;;;;;;9.77;5.60;;;-5.80;71.40;;;;;;5134728;27;20507;-41
2024/01/09 08:34:51;;;;;;;7.27;4.53;;;-5.70;68.20;;;;;;5135077;27;20185;-43
2024/01/09 08:37:17;;;;;;;8.47;5.10;;;-5.70;69.90;;;;;;5133835;27;20416;-42
2024/01/09 08:39:43;;;;;;;10.63;5.97;;;-5.70;66.10;;;;;;5116320;27;20238;-43
2024/01/09 08:42:10;;;;;;;11.30;6.03;;;-5.70;65.20;;;;;;5134597;27;20203;-42
2024/01/09 08:44:36;;;;;;;9.77;5.43;;;-5.60;64.40;;;;;;5134512;27;20193;-46
2024/01/09 08:47:07;;;;;;;8.33;3.93;;;-5.60;61.40;;;;;;5116730;27;20419;-47
2024/01/09 08:49:40;;;;;;;13.83;6.03;;;-5.60;53.30;;;;;;5134352;27;20190;-46
2024/01/09 08:52:09;;;;;;;13.17;6.73;;;-5.50;53.40;;;;;;5115939;27;20428;-46
2024/01/09 08:54:36;;;;;;;15.60;7.20;;;-5.50;53.20;;;;;;5134363;27;20423;-47
2024/01/09 08:57:02;;;;;;;14.27;7.37;;;-5.50;49.20;;;;;;5134404;27;20404;-46
2024/01/09 08:59:34;;;;;;;11.33;5.80;;;-5.40;48.50;;;;;;5134262;27;20458;-46
2024/01/09 09:05:47;;;;;;;12.93;6.47;;;-5.40;41.20;;;;;;5134480;28;20379;-46
2024/01/09 09:08:14;;;;;;;10.83;6.10;;;-5.30;35.80;;;;;;5134573;28;20405;-47
2024/01/09 09:10:40;;;;;;;18.60;6.63;;;-5.30;27.70;;;;;;5134449;28;20438;-47
2024/01/09 09:13:06;;;;;;;13.70;5.60;;;-5.20;26.60;;;;;;5134303;28;20869;-47
2024/01/09 09:15:35;;;;;;;12.37;7.30;;;-5.60;26.50;;;;;;5134526;28;20205;-47
2024/01/09 09:18:23;;;;;;;9.33;6.10;;;-5.20;25.50;;;;;;5115954;28;20411;-47
2024/01/09 09:20:52;;;;;;;7.60;5.10;;;-5.10;21.20;;;;;;5115967;28;20449;-46
2024/01/09 09:23:19;;;;;;;12.50;7.30;;;-5.10;17.30;;;;;;5134567;28;20503;-47
2024/01/09 09:25:50;;;;;;;8.23;5.20;;;-5.00;15.40;;;;;;5116120;28;20971;-47
2024/01/09 09:28:27;;;;;;;10.10;5.17;;;-5.00;14.80;;;;;;5134184;28;20419;-47
2024/01/09 09:30:53;;;;;;;7.43;4.40;;;-5.00;11.70;;;;;;5134241;28;20422;-47
2024/01/09 09:37:34;;;;;;;13.80;8.43;;;-4.90;8.40;;;;;;5134280;28;20398;-47
2024/01/09 09:40:03;;;;;;;10.20;5.10;;;-4.80;9.10;;;;;;5134092;28;20985;-47
2024/01/09 09:42:34;;;;;;;11.53;5.03;;;-4.70;5.00;;;;;;5134440;28;20448;-46
2024/01/09 09:48:27;;;;;;;19.17;6.40;;;-4.60;4.20;;;;;;5135734;27;20429;-47
2024/01/09 09:50:57;;;;;;;10.53;5.33;;;-4.60;1.00;;;;;;5137851;27;20456;-46
2024/01/09 09:53:24;;;;;;;13.77;6.87;;;-4.50;1.00;;;;;;5138033;27;20432;-47
2024/01/09 09:55:57;;;;;;;13.73;5.87;;;-4.50;1.00;;;;;;5137756;27;20417;-46
2024/01/09 10:02:19;;;;;;;9.63;5.80;;;-4.40;1.00;;;;;;5137679;27;20980;-46
2024/01/09 10:04:56;;;;;;;13.70;6.07;;;-4.30;1.00;;;;;;5119258;27;20422;-46
2024/01/09 10:07:31;;;;;;;8.93;5.90;;;-4.20;1.00;;;;;;5137970;27;20797;-46
2024/01/09 10:10:08;;;;;;;13.20;5.97;;;-4.20;1.00;;;;;;5137952;27;20429;-47
2024/01/09 10:12:58;;;;;;;11.90;4.63;;;-4.20;1.00;;;;;;5119353;27;20487;-46
2024/01/09 10:15:25;;;;;;;6.40;3.53;;;-4.00;1.00;;;;;;5137191;27;20768;-46
2024/01/09 10:18:32;;;;;;;8.77;4.87;;;-4.10;1.00;;;;;;5137761;27;20747;-47
2024/01/09 10:21:00;;;;;;;10.57;6.70;;;-4.00;1.00;;;;;;5137915;27;20437;-46
2024/01/09 10:23:29;;;;;;;9.67;5.43;;;-4.00;1.00;;;;;;5119366;27;20413;-48
2024/01/09 10:25:56;;;;;;;9.07;4.40;;;-3.90;1.00;;;;;;5118737;27;20431;-47
2024/01/09 10:29:08;;;;;;;10.40;5.70;;;-3.90;1.00;;;;;;5137148;27;20491;-47
2024/01/09 10:31:34;;;;;;;14.90;5.77;;;-3.80;1.00;;;;;;5136907;27;20434;-46
2024/01/09 10:34:03;;;;;;;8.33;5.30;;;-3.80;1.00;;;;;;5137750;27;20417;-47
2024/01/09 10:36:30;;;;;;;10.33;5.70;;;-3.80;1.00;;;;;;5137227;27;20601;-47
2024/01/09 10:39:25;;;;;;;11.40;6.53;;;-3.70;1.00;;;;;;5136627;27;20473;-47
2024/01/09 10:41:50;;;;;;;10.57;4.03;;;-3.60;1.00;;;;;;5136182;27;20453;-47
2024/01/09 10:44:19;;;;;;;10.43;5.77;;;-3.60;1.00;;;;;;5137338;27;20762;-47
2024/01/09 10:46:49;;;;;;;9.50;4.30;;;-3.60;1.00;;;;;;5118698;27;20260;-46
2024/01/09 10:49:15;;;;;;;14.27;4.47;;;-3.50;1.00;;;;;;5118371;27;20434;-47
2024/01/09 10:51:55;;;;;;;8.40;5.93;;;-3.50;1.00;;;;;;5118275;27;20503;-47
2024/01/09 10:54:27;;;;;;;8.37;4.77;;;-3.40;1.00;;;;;;5136603;27;20411;-47
2024/01/09 10:56:58;;;;;;;7.37;4.63;;;-3.30;1.00;;;;;;5136616;27;20919;-46
2024/01/09 10:59:25;;;;;;;7.70;3.87;;;-3.30;1.00;;;;;;5136137;27;20467;-47
2024/01/09 11:01:52;;;;;;;7.73;3.97;;;-3.30;1.00;;;;;;5136982;27;20424;-47
2024/01/09 11:07:43;;;;;;;5.83;3.43;;;-3.20;1.00;;;;;;5117093;27;20418;-48
2024/01/09 11:10:17;;;;;;;6.80;3.87;;;-3.10;1.00;;;;;;5136097;27;20447;-48
2024/01/09 11:12:47;;;;;;;7.87;4.87;;;-3.10;1.00;;;;;;5102402;27;20426;-48
2024/01/09 11:15:27;;;;;;;8.97;5.13;;;-3.00;1.00;;;;;;5117737;27;20419;-48
2024/01/09 11:18:01;;;;;;;10.00;5.83;;;-3.00;1.00;;;;;;5136338;27;20407;-47
2024/01/09 11:20:29;;;;;;;10.73;4.83;;;-2.90;1.00;;;;;;5136355;27;20485;-47
2024/01/09 11:22:58;;;;;;;10.67;5.47;;;-2.90;1.00;;;;;;5118139;27;20488;-47
2024/01/09 11:25:31;;;;;;;9.70;5.00;;;-2.80;1.00;;;;;;5136341;27;20758;-48
2024/01/09 11:27:57;;;;;;;6.87;4.07;;;-2.80;1.00;;;;;;5117222;27;20415;-48
2024/01/09 11:30:27;;;;;;;10.17;6.13;;;-2.80;1.00;;;;;;5135354;27;20477;-48
2024/01/09 11:32:58;;;;;;;11.63;6.33;;;-2.70;1.00;;;;;;5117408;27;20419;-47
2024/01/09 11:35:28;;;;;;;8.83;4.67;;;-2.60;1.00;;;;;;5100318;27;20426;-47
2024/01/09 11:37:59;;;;;;;10.20;5.47;;;-2.60;1.00;;;;;;5136013;27;20415;-46
2024/01/09 11:40:31;;;;;;;7.70;4.10;;;-2.60;1.00;;;;;;5100549;27;20463;-48
2024/01/09 11:42:57;;;;;;;7.20;4.30;;;-2.50;99.90;;;;;;5113078;27;20412;-48
2024/01/09 11:45:29;;;;;;;7.93;5.13;;;-2.50;99.90;;;;;;5117567;27;20987;-48
2024/01/09 11:47:58;;;;;;;12.70;5.20;;;-2.40;99.90;;;;;;5135965;27;20209;-47
2024/01/09 11:50:30;;;;;;;13.13;5.27;;;-2.40;99.90;;;;;;5135470;27;20424;-48
2024/01/09 11:52:58;;;;;;;7.97;4.03;;;-2.30;99.90;;;;;;5135549;27;20423;-45
2024/01/09 11:55:36;;;;;;;9.77;4.40;;;-2.30;99.90;;;;;;5116570;27;20476;-47
2024/01/09 11:58:06;;;;;;;9.13;5.27;;;-2.20;1.00;;;;;;5134930;27;20422;-47
2024/01/09 12:00:35;;;;;;;11.97;4.97;;;-2.20;99.90;;;;;;5135376;27;20459;-48
2024/01/09 12:03:00;;;;;;;6.67;3.87;;;-2.10;99.90;;;;;;5135248;27;20418;-47
2024/01/09 12:05:26;;;;;;;10.37;4.80;;;-2.10;99.90;;;;;;5135206;27;20486;-48
2024/01/09 12:07:52;;;;;;;7.70;4.23;;;-2.00;99.90;;;;;;5135456;27;20170;-47
2024/01/09 12:10:18;;;;;;;6.93;3.67;;;-2.00;99.90;;;;;;5135192;27;20206;-47
2024/01/09 12:12:45;;;;;;;8.93;4.37;;;-2.00;1.00;;;;;;5117055;27;20764;-47
2024/01/09 12:15:19;;;;;;;7.00;4.50;;;-2.00;1.00;;;;;;5135369;27;20185;-48
2024/01/09 12:17:52;;;;;;;9.53;5.40;;;-1.90;1.00;;;;;;5116640;27;20762;-46
2024/01/09 12:20:20;;;;;;;12.00;4.03;;;-1.90;1.00;;;;;;5132226;27;20464;-47
2024/01/09 12:22:45;;;;;;;7.40;5.10;;;-1.80;1.00;;;;;;5134816;27;20421;-47
2024/01/09 12:25:11;;;;;;;8.47;4.47;;;-1.80;1.00;;;;;;5134944;27;20408;-47
2024/01/09 12:27:46;;;;;;;6.80;3.90;;;-1.80;1.00;;;;;;5135312;27;20189;-47
2024/01/09 12:30:14;;;;;;;9.20;4.90;;;-1.70;1.00;;;;;;5134946;27;20195;-48
2024/01/09 12:32:40;;;;;;;11.20;4.40;;;-1.70;99.90;;;;;;5134789;27;20478;-47
2024/01/09 12:35:07;;;;;;;8.50;5.27;;;-1.60;99.90;;;;;;5134656;27;20410;-47
2024/01/09 12:37:32;;;;;;;6.77;4.33;;;-1.60;99.90;;;;;;5134762;27;20175;-48
2024/01/09 12:40:01;;;;;;;10.57;4.73;;;-1.60;99.90;;;;;;5134455;27;21112;-48
2024/01/09 12:42:28;;;;;;;4.53;3.33;;;-1.50;99.90;;;;;;5134827;27;20208;-48
2024/01/09 12:44:53;;;;;;;6.80;3.93;;;-1.50;1.00;;;;;;5134543;27;20227;-47
2024/01/09 12:47:19;;;;;;;6.67;4.20;;;-1.50;99.90;;;;;;5134862;27;20183;-47
2024/01/09 12:49:49;;;;;;;4.40;2.77;;;-1.40;1.00;;;;;;5134438;27;20176;-48
2024/01/09 12:52:17;;;;;;;5.10;3.47;;;-1.40;92.80;;;;;;5134538;27;20195;-48
2024/01/09 12:55:02;;;;;;;6.87;4.13;;;-1.30;1.00;;;;;;5126713;27;20268;-48
2024/01/09 12:57:27;;;;;;;8.93;4.80;;;-1.30;1.00;;;;;;5134715;27;20230;-47
2024/01/09 12:59:53;;;;;;;6.53;4.57;;;-1.20;99.90;;;;;;5134256;27;20292;-48
2024/01/09 13:02:19;;;;;;;9.30;4.47;;;-1.20;1.00;;;;;;5134399;28;20196;-47
2024/01/09 13:04:48;;;;;;;10.53;4.30;;;-1.20;1.00;;;;;;5134343;28;20641;-47
2024/01/09 13:07:20;;;;;;;9.67;4.10;;;-1.20;99.90;;;;;;5134325;28;20665;-48
2024/01/09 13:09:46;;;;;;;6.90;3.90;;;-1.10;1.00;;;;;;5134517;28;20245;-47
2024/01/09 13:12:11;;;;;;;8.17;4.27;;;-1.10;99.90;;;;;;5116309;28;20173;-48
2024/01/09 13:14:37;;;;;;;11.80;3.83;;;-1.10;1.00;;;;;;5116463;28;20178;-48
2024/01/09 13:17:03;;;;;;;7.50;3.43;;;-1.10;99.90;;;;;;5134659;28;20181;-48
2024/01/09 13:19:29;;;;;;;5.83;3.70;;;-1.00;99.90;;;;;;5134412;28;20209;-48
2024/01/09 13:25:16;;;;;;;8.90;4.47;;;-1.00;1.00;;;;;;5138499;27;20210;-47
2024/01/09 13:27:44;;;;;;;8.90;3.63;;;-0.90;1.00;;;;;;5120293;27;20256;-47
2024/01/09 13:30:13;;;;;;;8.93;4.70;;;-0.90;99.90;;;;;;5138556;27;20541;-47
2024/01/09 13:32:39;;;;;;;8.33;4.17;;;-0.90;1.00;;;;;;5138220;27;20652;-48
2024/01/09 13:35:05;;;;;;;11.13;4.90;;;-0.90;1.00;;;;;;5138144;27;20183;-48
2024/01/09 13:37:30;;;;;;;11.03;5.10;;;-0.80;1.00;;;;;;5138368;27;20786;-47
2024/01/09 13:39:56;;;;;;;10.63;4.93;;;-0.80;1.00;;;;;;5137923;27;20553;-47
2024/01/09 13:42:22;;;;;;;13.63;5.47;;;-0.80;1.00;;;;;;5138173;27;20204;-48
2024/01/09 13:44:57;;;;;;;11.70;5.40;;;-0.80;1.00;;;;;;5138075;27;20189;-47